Etusivu
METAR-TAF:

METAR-TAF

Lentoasemat :

Amman, Jordania

Leveyspiiri: 31-59N, Pituuspiiri: 035-59E, korkeus merenpinnasta: 767 m

Tämänhetkinen sää

Tämä raportti tehtiin 27 minuuttia sitten, kello 21.00 UTC
Tuuli 7 kn lännestä
Lämpötila 22°C
Kosteus 60%
Ilmanpaine 1014 hPa
Näkyvyys: 5000 m
usvaa

METAR: OJAM 182100Z 26007KT 5000 HZ NSC 22/14 Q1014 NOSIG

Aika: 00:27 (21:27 UTC)

Sääennuste

Tämä raportti tehtiin 4 tuntia ja 54 minuuttia sitten, kello 16.33 UTC
Ennuste voimassa 18. päivästä klo 18 UTC - 19. päivään klo 24 UTC
Tuuli 12 kn luoteesta
Näkyvyys: 5000 m
Muutamia pilviä 3500 ft:n korkeudessa
usvaa
Todennäköisyys 30%
19. päivästä klo 02 UTC - 19. päivään klo 06 UTC
Tuuli 2 kn eri suunnista
Näkyvyys: 3000 m
savua

TAF: OJAM 181633Z 1818/1924 32012KT 5000 HZ FEW035 PROB30 1902/1906 VRB02KT 3000 FU

Säähavainnot ja -ennusteet yli 4000 lentoasemalta (METAR- ja TAF-raportit).

Käytössä olevat sääasemat on merkitty karttaan keltaisilla ja punaisilla pisteillä.

Aseta hiiri pisteen päälle nähdäksesi sääaseman nimen.

Klikkaa sitten nähdäksesi säähavainnot ja -ennusteet.

Kartan vaihtaminen: klikkaa mustalla rastilla varustettuja vihreitä pisteitä, niin voit zoomata sisään; viivalla varustettua vihreää pistettä, niin voit zoomata ulos tai vihreitä nuolia, niin pääset viereisille kartoille.


METAR-TAF: